Terminal Aerodrome Forecast
Issued by NWS

Home | Current Version | Previous Version | Text Only | Print | Product List | Glossary On
Versions: 1 2 3 4 5 6 7 8 9 10 11 12 13 14 15
287
FTUS45 KABQ 241120
TAFFMN
TAF
KFMN 241120Z 2412/2512 09005KT P6SM BKN100
     FM242100 13007KT P6SM VCSH BKN070
      TEMPO 2423/2503 VRB15G30KT 6SM -TSRA OVC050CB=

USA.gov is the U.S. government's official web portal to all federal, state and local government web resources and services.